Time;durP1;ratioP1;P1;durP2;ratioP2;P2;SDS_P1;SDS_P2;PMS_P1;PMS_P2;Temp;Humidity;BMP_temperature;BMP_pressure;BME280_temperature;BME280_humidity;BME280_pressure;Samples;Min_cycle;Max_cycle;Signal;HPM_P1;HPM_P2
2021/12/28 00:00:27;;;;;;;32.50;15.48;;;4.70;99.90;;;;;;5071989;28;20181;-75
2021/12/28 00:02:55;;;;;;;33.58;15.70;;;4.50;99.90;;;;;;5069617;28;20448;-75
2021/12/28 00:05:21;;;;;;;30.42;16.15;;;4.40;99.90;;;;;;5055003;28;20126;-75
2021/12/28 00:07:47;;;;;;;32.50;16.10;;;4.40;99.90;;;;;;5071138;28;20469;-75
2021/12/28 00:10:16;;;;;;;33.25;16.05;;;4.40;99.90;;;;;;5072104;28;20073;-75
2021/12/28 00:12:42;;;;;;;32.78;16.90;;;4.50;99.90;;;;;;5069817;28;20054;-75
2021/12/28 00:18:04;;;;;;;27.90;15.18;;;4.50;99.90;;;;;;5067113;28;20056;-75
2021/12/28 00:20:42;;;;;;;31.35;15.60;;;4.60;99.90;;;;;;5071900;28;20083;-75
2021/12/28 00:23:18;;;;;;;32.10;16.33;;;4.70;99.90;;;;;;5055333;28;20106;-75
2021/12/28 00:25:50;;;;;;;28.10;14.95;;;5.10;99.90;;;;;;5069182;28;20048;-75
2021/12/28 00:28:16;;;;;;;32.22;15.57;;;4.70;99.90;;;;;;5073015;28;20044;-74
2021/12/28 00:30:42;;;;;;;31.52;15.73;;;4.70;99.90;;;;;;5055805;28;20404;-74
2021/12/28 00:33:09;;;;;;;31.20;15.68;;;4.70;99.90;;;;;;5071255;28;21499;-74
2021/12/28 00:35:37;;;;;;;33.40;16.27;;;4.70;99.90;;;;;;5054208;28;20049;-75
2021/12/28 00:38:04;;;;;;;32.45;15.45;;;5.20;99.90;;;;;;5069074;28;20123;-74
2021/12/28 00:40:31;;;;;;;31.58;16.38;;;4.80;99.90;;;;;;5072381;28;20447;-75
2021/12/28 00:42:57;;;;;;;30.70;15.90;;;4.80;99.90;;;;;;5068082;28;20036;-75
2021/12/28 00:45:23;;;;;;;30.13;15.90;;;4.80;99.90;;;;;;5067679;28;20398;-74
2021/12/28 00:47:49;;;;;;;30.17;15.52;;;4.80;99.90;;;;;;5056559;28;20487;-75
2021/12/28 00:50:17;;;;;;;30.10;15.88;;;4.90;99.90;;;;;;5050417;28;20497;-75
2021/12/28 00:52:44;;;;;;;34.25;16.67;;;4.90;99.90;;;;;;5054912;28;20052;-75
2021/12/28 00:55:11;;;;;;;32.65;15.95;;;4.90;99.90;;;;;;5070914;28;20051;-75
2021/12/28 00:57:36;;;;;;;33.83;16.30;;;4.90;99.90;;;;;;5071371;28;20489;-75
2021/12/28 01:00:09;;;;;;;36.10;16.45;;;4.90;99.90;;;;;;5067112;28;20059;-75
2021/12/28 01:02:35;;;;;;;32.15;15.90;;;4.90;99.90;;;;;;5068716;28;20110;-74
2021/12/28 01:05:01;;;;;;;33.53;17.25;;;5.00;99.90;;;;;;5053671;28;20044;-75
2021/12/28 01:07:27;;;;;;;35.78;16.95;;;5.00;99.90;;;;;;5072189;28;20052;-75
2021/12/28 01:09:52;;;;;;;36.05;17.77;;;5.30;99.90;;;;;;5069506;28;20477;-75
2021/12/28 01:12:18;;;;;;;36.47;18.27;;;5.00;99.90;;;;;;5053479;28;20048;-75
2021/12/28 01:14:44;;;;;;;45.28;18.58;;;5.00;99.90;;;;;;5068690;28;20091;-74
2021/12/28 01:17:10;;;;;;;42.58;18.67;;;5.10;99.90;;;;;;5071129;28;20409;-75
2021/12/28 01:19:36;;;;;;;46.90;19.25;;;5.00;99.90;;;;;;5071613;28;20524;-75
2021/12/28 01:22:02;;;;;;;48.20;20.48;;;4.50;99.90;;;;;;5055181;28;20047;-75
2021/12/28 01:24:29;;;;;;;49.08;20.05;;;5.10;99.90;;;;;;5052416;28;20451;-75
2021/12/28 01:26:55;;;;;;;45.92;20.10;;;5.10;99.90;;;;;;5072725;28;20052;-75
2021/12/28 01:29:21;;;;;;;53.22;20.05;;;5.10;99.90;;;;;;5070678;28;20167;-75
2021/12/28 01:31:47;;;;;;;50.50;20.60;;;5.10;99.90;;;;;;5090902;28;20126;-75
2021/12/28 01:34:13;;;;;;;51.78;20.80;;;5.60;99.90;;;;;;5052637;28;20055;-75
2021/12/28 01:36:38;;;;;;;56.25;21.80;;;5.20;99.90;;;;;;5069330;28;20054;-75
2021/12/28 01:39:07;;;;;;;55.97;22.50;;;5.10;99.90;;;;;;5055791;28;20051;-75
2021/12/28 01:41:33;;;;;;;60.03;22.70;;;5.20;99.90;;;;;;5069057;28;20044;-75
2021/12/28 01:44:02;;;;;;;53.72;22.02;;;5.30;99.90;;;;;;5068808;28;20123;-76
2021/12/28 01:46:28;;;;;;;59.58;23.27;;;5.50;99.90;;;;;;5069129;28;20044;-75
2021/12/28 01:48:54;;;;;;;63.20;22.52;;;5.30;99.90;;;;;;5034527;28;20147;-76
2021/12/28 01:51:23;;;;;;;62.83;23.80;;;6.00;99.90;;;;;;5053389;28;20051;-75
2021/12/28 01:53:52;;;;;;;60.70;23.63;;;5.40;99.90;;;;;;5083951;28;20052;-76
2021/12/28 01:56:26;;;;;;;66.13;23.60;;;5.30;99.90;;;;;;5068873;28;20036;-75
2021/12/28 01:58:52;;;;;;;66.95;24.60;;;5.40;99.90;;;;;;5053114;28;20134;-75
2021/12/28 02:01:18;;;;;;;69.40;23.60;;;5.40;99.90;;;;;;5070486;28;20412;-75
2021/12/28 02:03:45;;;;;;;69.00;25.30;;;5.40;99.90;;;;;;5070364;28;20052;-76
2021/12/28 02:06:12;;;;;;;71.00;24.40;;;5.70;99.90;;;;;;5083169;28;20052;-75
2021/12/28 02:08:40;;;;;;;77.13;24.88;;;5.50;99.90;;;;;;5052899;28;20058;-75
2021/12/28 02:11:06;;;;;;;81.45;26.10;;;5.80;99.90;;;;;;5050006;28;20492;-75
2021/12/28 02:13:32;;;;;;;71.38;24.52;;;5.50;99.90;;;;;;5069700;28;20056;-76
2021/12/28 02:15:59;;;;;;;85.05;26.38;;;6.20;99.90;;;;;;5084558;28;20066;-75
2021/12/28 02:18:27;;;;;;;81.72;26.40;;;5.50;99.90;;;;;;5049480;28;20044;-75
2021/12/28 02:20:54;;;;;;;97.03;27.08;;;5.60;99.90;;;;;;5067416;28;20059;-75
2021/12/28 02:23:20;;;;;;;88.35;27.30;;;5.50;99.90;;;;;;5071653;28;20439;-76
2021/12/28 02:25:46;;;;;;;89.03;26.75;;;5.60;99.90;;;;;;5071322;28;20542;-75
2021/12/28 02:28:14;;;;;;;95.93;27.38;;;5.60;99.90;;;;;;5086913;28;20032;-75
2021/12/28 02:30:42;;;;;;;101.70;29.85;;;5.60;99.90;;;;;;5069587;28;20393;-76
2021/12/28 02:33:09;;;;;;;111.10;30.02;;;5.60;99.90;;;;;;5050750;28;20048;-75
2021/12/28 02:35:35;;;;;;;118.30;29.35;;;5.80;99.90;;;;;;5064973;28;20439;-76
2021/12/28 02:38:02;;;;;;;105.40;29.00;;;5.60;99.90;;;;;;5068901;28;20044;-76
2021/12/28 02:40:31;;;;;;;135.30;32.10;;;5.60;99.90;;;;;;5067779;28;20123;-75
2021/12/28 02:43:00;;;;;;;130.82;31.10;;;5.90;99.90;;;;;;5069146;28;20047;-75
2021/12/28 02:45:28;;;;;;;109.32;29.25;;;5.60;99.90;;;;;;5067636;28;20051;-77
2021/12/28 02:47:55;;;;;;;138.73;32.22;;;5.70;99.90;;;;;;5066882;28;20041;-76
2021/12/28 02:50:32;;;;;;;169.32;33.80;;;6.00;99.90;;;;;;5049570;28;20504;-76
2021/12/28 02:52:58;;;;;;;187.40;36.95;;;5.60;99.90;;;;;;5068409;28;20098;-76
2021/12/28 02:55:26;;;;;;;169.90;33.75;;;6.10;99.90;;;;;;5049950;28;20044;-75
2021/12/28 02:57:55;;;;;;;168.88;34.85;;;5.70;99.90;;;;;;5052895;28;20090;-75
2021/12/28 03:00:38;;;;;;;183.27;35.95;;;5.70;99.90;;;;;;5085782;28;20051;-76
2021/12/28 03:03:06;;;;;;;146.45;33.22;;;5.70;99.90;;;;;;5071927;28;20044;-75
2021/12/28 03:05:33;;;;;;;159.60;33.22;;;5.70;99.90;;;;;;5069440;28;20036;-76
2021/12/28 03:07:59;;;;;;;183.48;36.67;;;5.70;99.90;;;;;;5069282;28;20036;-76
2021/12/28 03:10:25;;;;;;;185.52;36.05;;;5.70;99.90;;;;;;5068407;28;20093;-76
2021/12/28 03:12:50;;;;;;;148.90;32.47;;;5.70;99.90;;;;;;5053012;28;20048;-76
2021/12/28 03:15:16;;;;;;;152.52;33.47;;;5.70;99.90;;;;;;5068102;28;20083;-76
2021/12/28 03:17:42;;;;;;;202.23;35.90;;;5.70;99.90;;;;;;5067758;28;20055;-75
2021/12/28 03:20:12;;;;;;;184.45;36.05;;;5.60;99.90;;;;;;5068577;28;20539;-76
2021/12/28 03:22:38;;;;;;;169.07;33.85;;;5.70;99.90;;;;;;5050624;28;20101;-76
2021/12/28 03:25:05;;;;;;;149.32;33.50;;;5.70;99.90;;;;;;5067934;28;20040;-76
2021/12/28 03:27:31;;;;;;;150.30;33.67;;;5.70;99.90;;;;;;5068679;28;20040;-76
2021/12/28 03:29:57;;;;;;;151.70;34.63;;;5.80;99.90;;;;;;5070677;28;20400;-76
2021/12/28 03:32:23;;;;;;;173.38;35.30;;;5.80;99.90;;;;;;5068462;28;20079;-76
2021/12/28 03:34:48;;;;;;;186.68;35.95;;;5.80;99.90;;;;;;5064901;28;20048;-76
2021/12/28 03:37:14;;;;;;;164.15;37.17;;;5.80;99.90;;;;;;5067845;28;20059;-76
2021/12/28 03:39:40;;;;;;;164.07;35.42;;;5.80;99.90;;;;;;5069449;28;20127;-75
2021/12/28 03:42:06;;;;;;;171.63;36.30;;;5.90;99.90;;;;;;5068459;28;20048;-76
2021/12/28 03:44:32;;;;;;;173.35;35.90;;;5.90;99.90;;;;;;5066095;28;20044;-76
2021/12/28 03:46:58;;;;;;;206.50;38.38;;;6.20;99.90;;;;;;5070263;28;20040;-76
2021/12/28 03:49:23;;;;;;;254.38;41.17;;;5.90;99.90;;;;;;5087058;28;20128;-76
2021/12/28 03:51:50;;;;;;;187.02;37.65;;;5.90;99.90;;;;;;5068137;28;20062;-76
2021/12/28 03:54:16;;;;;;;201.45;38.80;;;5.90;99.90;;;;;;5065275;28;20048;-76
2021/12/28 03:56:42;;;;;;;210.50;39.25;;;6.00;99.90;;;;;;5070046;28;20408;-77
2021/12/28 03:59:07;;;;;;;174.82;36.17;;;6.40;99.90;;;;;;5071132;28;20040;-76
2021/12/28 04:01:33;;;;;;;214.63;40.70;;;6.10;99.90;;;;;;5090637;28;20104;-76
2021/12/28 04:03:59;;;;;;;202.00;39.13;;;6.10;99.90;;;;;;5055074;28;20546;-75
2021/12/28 04:06:25;;;;;;;214.43;40.00;;;6.10;99.90;;;;;;5071142;28;20049;-76
2021/12/28 04:08:52;;;;;;;203.55;40.78;;;6.10;99.90;;;;;;5069209;28;20809;-76
2021/12/28 04:13:48;;;;;;;242.15;41.13;;;6.10;99.90;;;;;;5067287;28;20110;-75
2021/12/28 04:16:14;;;;;;;295.45;43.92;;;6.10;99.90;;;;;;5069175;28;20049;-75
2021/12/28 04:18:41;;;;;;;233.90;40.88;;;6.20;99.90;;;;;;5054458;28;20075;-75
2021/12/28 04:21:07;;;;;;;254.73;41.30;;;6.20;99.90;;;;;;5071082;28;20374;-75
2021/12/28 04:23:34;;;;;;;242.35;40.80;;;6.20;99.90;;;;;;5035726;28;20419;-76
2021/12/28 04:26:00;;;;;;;260.45;41.97;;;6.20;99.90;;;;;;5071111;28;20045;-76
2021/12/28 04:28:25;;;;;;;356.02;46.85;;;6.20;99.90;;;;;;5057010;28;20531;-76
2021/12/28 04:30:51;;;;;;;286.85;43.60;;;6.20;99.90;;;;;;5075587;28;20051;-76
2021/12/28 04:33:17;;;;;;;271.85;40.22;;;6.20;99.90;;;;;;5071973;28;20067;-77
2021/12/28 04:35:43;;;;;;;311.05;43.25;;;6.20;99.90;;;;;;5070038;28;20044;-76
2021/12/28 04:38:09;;;;;;;300.17;43.97;;;6.20;99.90;;;;;;5072478;28;20048;-76
2021/12/28 04:40:35;;;;;;;453.20;49.15;;;6.20;99.90;;;;;;5054268;28;20097;-76
2021/12/28 04:43:00;;;;;;;522.75;52.55;;;6.30;99.90;;;;;;5055150;28;20134;-76
2021/12/28 04:45:26;;;;;;;515.28;53.38;;;6.30;99.90;;;;;;5052506;28;20047;-76
2021/12/28 04:47:52;;;;;;;582.72;56.05;;;6.30;99.90;;;;;;5054798;28;20063;-76
2021/12/28 04:50:18;;;;;;;479.92;50.88;;;6.30;99.90;;;;;;5072713;28;20040;-76
2021/12/28 04:52:44;;;;;;;519.95;53.00;;;6.30;99.90;;;;;;5089024;28;20046;-76
2021/12/28 04:55:14;;;;;;;645.70;57.03;;;6.40;99.90;;;;;;5052771;28;20054;-76
2021/12/28 04:57:40;;;;;;;592.38;55.10;;;6.40;99.90;;;;;;5072433;28;22149;-77
2021/12/28 05:00:10;;;;;;;548.85;52.60;;;6.40;99.90;;;;;;5054734;28;20070;-76
2021/12/28 05:02:36;;;;;;;631.33;57.95;;;6.40;99.90;;;;;;5054253;28;20524;-76
2021/12/28 05:05:03;;;;;;;408.15;44.92;;;6.40;99.90;;;;;;5064947;28;20083;-76
2021/12/28 05:07:29;;;;;;;746.90;62.97;;;6.50;99.90;;;;;;5050384;28;20044;-76
2021/12/28 05:09:57;;;;;;;654.60;57.85;;;6.40;99.90;;;;;;5056263;28;20051;-76
2021/12/28 05:12:25;;;;;;;626.22;54.38;;;6.40;99.90;;;;;;5070442;28;20121;-75
2021/12/28 05:14:51;;;;;;;570.33;53.00;;;6.70;99.90;;;;;;5055129;28;20048;-76
2021/12/28 05:17:16;;;;;;;658.65;59.10;;;6.40;99.90;;;;;;5056041;28;20048;-75
2021/12/28 05:19:43;;;;;;;705.80;60.55;;;6.40;99.90;;;;;;5069285;28;20058;-75
2021/12/28 05:22:09;;;;;;;639.85;57.20;;;6.40;99.90;;;;;;5075303;28;20067;-75
2021/12/28 05:24:39;;;;;;;679.08;58.42;;;6.40;99.90;;;;;;5053509;28;20443;-76
2021/12/28 05:27:05;;;;;;;665.67;58.40;;;6.30;99.90;;;;;;5055188;28;20047;-76
2021/12/28 05:29:31;;;;;;;620.92;55.42;;;6.30;99.90;;;;;;5052053;28;20481;-75
2021/12/28 05:31:58;;;;;;;583.75;53.00;;;6.50;99.90;;;;;;5066443;28;20047;-75
2021/12/28 05:34:23;;;;;;;568.78;52.05;;;6.20;99.90;;;;;;5071259;28;20877;-76
2021/12/28 05:36:49;;;;;;;567.10;52.10;;;6.20;99.90;;;;;;5052370;28;20056;-75
2021/12/28 05:39:15;;;;;;;525.63;47.85;;;6.20;99.90;;;;;;5055005;28;21501;-76
2021/12/28 05:41:41;;;;;;;543.65;49.88;;;6.10;99.90;;;;;;5087375;28;20508;-75
2021/12/28 05:44:07;;;;;;;505.40;49.00;;;6.10;99.90;;;;;;5053999;28;20051;-77
2021/12/28 05:46:33;;;;;;;568.40;51.65;;;6.10;99.90;;;;;;5053215;28;20073;-75
2021/12/28 05:48:59;;;;;;;500.27;47.67;;;6.10;99.90;;;;;;5068475;28;20044;-75
2021/12/28 05:51:24;;;;;;;390.02;41.08;;;6.10;99.90;;;;;;5055068;28;20428;-75
2021/12/28 05:53:50;;;;;;;412.55;41.97;;;6.00;99.90;;;;;;5066859;28;20053;-76
2021/12/28 05:56:16;;;;;;;499.75;46.85;;;6.00;99.90;;;;;;5067022;28;20079;-75
2021/12/28 05:58:42;;;;;;;399.65;43.45;;;6.00;99.90;;;;;;5070789;28;20144;-76
2021/12/28 06:01:08;;;;;;;388.95;40.42;;;6.00;99.90;;;;;;5053852;28;20086;-76
2021/12/28 06:03:34;;;;;;;464.08;43.97;;;6.00;99.90;;;;;;5072738;28;20531;-76
2021/12/28 06:05:59;;;;;;;376.25;39.05;;;6.00;99.90;;;;;;5065282;28;20049;-77
2021/12/28 06:08:25;;;;;;;287.48;36.42;;;6.00;99.90;;;;;;5068334;28;20488;-75
2021/12/28 06:10:51;;;;;;;274.85;36.50;;;6.40;99.90;;;;;;5050018;28;20197;-74
2021/12/28 06:13:18;;;;;;;259.88;35.25;;;6.00;99.90;;;;;;5059685;28;20132;-76
2021/12/28 06:15:44;;;;;;;318.55;36.85;;;6.10;99.90;;;;;;5048087;28;20091;-76
2021/12/28 06:18:10;;;;;;;283.52;35.60;;;6.00;99.90;;;;;;5031839;28;20049;-76
2021/12/28 06:20:36;;;;;;;260.05;34.95;;;6.40;99.90;;;;;;5047599;28;20110;-76
2021/12/28 06:23:02;;;;;;;242.55;34.33;;;6.00;99.90;;;;;;5047090;28;20073;-76
2021/12/28 06:25:27;;;;;;;259.80;35.13;;;6.10;99.90;;;;;;5046908;28;21940;-76
2021/12/28 06:27:53;;;;;;;234.65;33.88;;;6.10;99.90;;;;;;5048786;28;20152;-76
2021/12/28 06:30:19;;;;;;;234.55;32.50;;;6.10;99.90;;;;;;5049641;28;20178;-76
2021/12/28 06:32:45;;;;;;;266.50;35.28;;;6.10;99.90;;;;;;5049980;28;20473;-77
2021/12/28 06:35:12;;;;;;;216.88;32.05;;;6.10;99.90;;;;;;5048964;28;20045;-76
2021/12/28 06:37:38;;;;;;;161.90;29.15;;;6.10;99.90;;;;;;5048883;28;20044;-76
2021/12/28 06:40:05;;;;;;;166.57;30.08;;;6.10;99.90;;;;;;5049301;28;20068;-76
2021/12/28 06:42:31;;;;;;;159.52;31.10;;;6.00;99.90;;;;;;5045888;28;20421;-75
2021/12/28 06:44:57;;;;;;;191.02;31.58;;;6.10;99.90;;;;;;5046036;28;20110;-76
2021/12/28 06:47:23;;;;;;;152.10;29.25;;;6.10;99.90;;;;;;5048077;28;20048;-76
2021/12/28 06:49:49;;;;;;;156.73;29.77;;;6.00;99.90;;;;;;5012408;28;20079;-75
2021/12/28 06:52:14;;;;;;;151.23;30.13;;;6.00;99.90;;;;;;5028809;28;20094;-76
2021/12/28 06:54:41;;;;;;;149.93;31.02;;;6.10;99.90;;;;;;5048799;28;20128;-75
2021/12/28 06:57:09;;;;;;;129.63;28.45;;;6.40;99.90;;;;;;5047246;28;20057;-76
2021/12/28 06:59:43;;;;;;;119.22;28.60;;;6.10;99.90;;;;;;5048224;28;20079;-76
2021/12/28 07:02:16;;;;;;;115.35;28.38;;;6.10;99.90;;;;;;5046230;28;20053;-76
2021/12/28 07:04:42;;;;;;;140.05;29.52;;;6.10;99.90;;;;;;5043995;28;20132;-76
2021/12/28 07:07:08;;;;;;;140.65;28.55;;;6.00;99.90;;;;;;5046898;28;20131;-76
2021/12/28 07:09:35;;;;;;;122.55;27.27;;;6.00;99.90;;;;;;5045115;28;20084;-76
2021/12/28 07:12:02;;;;;;;117.70;26.55;;;6.00;99.90;;;;;;5044590;28;20051;-76
2021/12/28 07:14:28;;;;;;;96.90;25.30;;;6.00;99.90;;;;;;5054423;28;20080;-76
2021/12/28 07:16:55;;;;;;;95.78;25.60;;;6.10;99.90;;;;;;5053698;28;20040;-75
2021/12/28 07:19:21;;;;;;;100.65;25.63;;;6.10;99.90;;;;;;5054691;28;20041;-75
2021/12/28 07:21:47;;;;;;;76.60;22.30;;;6.10;99.90;;;;;;5060004;28;20555;-76
2021/12/28 07:24:13;;;;;;;98.20;24.67;;;6.20;99.90;;;;;;5053223;28;20103;-76
2021/12/28 07:26:40;;;;;;;83.53;24.00;;;6.10;99.90;;;;;;5065638;28;20064;-75
2021/12/28 07:29:06;;;;;;;79.50;22.42;;;6.20;99.90;;;;;;5059470;28;20632;-75
2021/12/28 07:31:33;;;;;;;72.43;21.75;;;6.10;99.90;;;;;;5062992;28;20425;-76
2021/12/28 07:33:59;;;;;;;70.38;19.88;;;6.20;99.90;;;;;;5050383;28;20051;-76
2021/12/28 07:36:24;;;;;;;83.57;22.45;;;6.20;99.90;;;;;;5063499;28;20142;-76
2021/12/28 07:38:50;;;;;;;64.80;19.77;;;6.20;99.90;;;;;;5063241;28;20115;-76
2021/12/28 07:41:16;;;;;;;69.55;21.90;;;6.20;99.90;;;;;;5052957;28;20132;-75
2021/12/28 07:43:43;;;;;;;60.75;19.30;;;6.30;99.90;;;;;;5063815;28;20072;-76
2021/12/28 07:46:08;;;;;;;63.08;19.25;;;6.80;99.90;;;;;;5062786;28;20048;-75
2021/12/28 07:48:35;;;;;;;57.38;19.50;;;6.30;99.90;;;;;;5047976;28;20094;-75
2021/12/28 07:51:00;;;;;;;59.67;18.38;;;6.30;99.90;;;;;;5034618;28;20055;-76
2021/12/28 07:53:26;;;;;;;58.90;18.55;;;6.40;99.90;;;;;;5058734;28;20139;-76
2021/12/28 07:55:52;;;;;;;59.15;18.15;;;6.40;99.90;;;;;;5053587;28;20048;-75
2021/12/28 07:58:18;;;;;;;49.30;18.23;;;6.40;99.90;;;;;;5053300;28;20513;-76
2021/12/28 08:00:44;;;;;;;54.95;16.63;;;6.40;99.90;;;;;;5048662;28;20148;-75
2021/12/28 08:03:10;;;;;;;45.80;15.20;;;6.80;99.90;;;;;;5064577;28;20047;-76
2021/12/28 08:05:37;;;;;;;53.03;17.02;;;6.70;99.90;;;;;;5046588;28;20184;-75
2021/12/28 08:08:03;;;;;;;48.20;16.45;;;6.50;99.90;;;;;;5067787;28;20600;-76
2021/12/28 08:10:30;;;;;;;45.35;15.38;;;6.50;99.90;;;;;;5051041;28;20102;-75
2021/12/28 08:12:56;;;;;;;39.50;14.13;;;6.50;99.90;;;;;;5067235;28;20056;-75
2021/12/28 08:15:25;;;;;;;48.53;15.82;;;6.60;99.90;;;;;;5059315;28;20079;-75
2021/12/28 08:17:51;;;;;;;40.92;14.00;;;6.60;99.90;;;;;;5074770;28;20044;-75
2021/12/28 08:20:18;;;;;;;42.80;14.20;;;6.70;99.90;;;;;;5075365;28;20051;-75
2021/12/28 08:22:46;;;;;;;43.75;13.95;;;6.60;99.90;;;;;;5074836;28;20040;-75
2021/12/28 08:25:15;;;;;;;38.22;14.15;;;6.70;99.90;;;;;;5073952;28;20079;-75
2021/12/28 08:27:41;;;;;;;34.60;12.93;;;6.70;99.90;;;;;;5073311;28;20054;-75
2021/12/28 08:30:10;;;;;;;37.15;13.05;;;6.80;99.90;;;;;;5074615;28;20060;-76
2021/12/28 08:32:36;;;;;;;44.47;13.30;;;6.80;99.90;;;;;;5074987;28;20052;-75
2021/12/28 08:35:04;;;;;;;34.67;12.52;;;6.80;99.90;;;;;;5051292;28;20040;-75
2021/12/28 08:37:30;;;;;;;36.30;12.15;;;6.80;99.90;;;;;;5059014;28;20052;-75
2021/12/28 08:39:56;;;;;;;35.20;12.02;;;6.80;99.90;;;;;;5075318;28;20105;-75
2021/12/28 08:42:22;;;;;;;35.17;12.20;;;6.80;99.90;;;;;;5058337;28;20050;-75
2021/12/28 08:44:49;;;;;;;32.63;11.40;;;6.80;99.90;;;;;;5070679;28;20048;-75
2021/12/28 08:47:15;;;;;;;35.65;12.05;;;7.50;99.90;;;;;;5074747;28;20048;-75
2021/12/28 08:49:41;;;;;;;32.67;10.85;;;6.90;99.90;;;;;;5068487;28;20051;-75
2021/12/28 08:52:07;;;;;;;32.30;11.13;;;6.90;99.90;;;;;;5074688;28;20044;-75
2021/12/28 08:54:34;;;;;;;27.42;10.40;;;6.90;99.90;;;;;;5072605;28;20077;-75
2021/12/28 08:57:00;;;;;;;28.75;10.68;;;7.20;99.90;;;;;;5075394;28;20076;-75
2021/12/28 08:59:26;;;;;;;34.40;11.15;;;7.00;99.90;;;;;;5071113;28;20050;-75
2021/12/28 09:01:54;;;;;;;29.55;10.30;;;7.10;99.90;;;;;;5073113;28;20048;-75
2021/12/28 09:04:20;;;;;;;37.25;11.32;;;7.10;99.90;;;;;;5064298;28;20043;-75
2021/12/28 09:06:46;;;;;;;32.92;10.70;;;7.30;99.90;;;;;;5066777;28;20036;-75
2021/12/28 09:09:12;;;;;;;30.05;9.73;;;7.20;99.90;;;;;;5070757;28;20047;-75
2021/12/28 09:11:38;;;;;;;29.20;9.77;;;7.20;99.90;;;;;;5074119;28;20052;-75
2021/12/28 09:14:04;;;;;;;32.45;9.23;;;7.30;99.90;;;;;;5073229;28;20134;-75
2021/12/28 09:16:30;;;;;;;24.38;9.07;;;7.30;99.90;;;;;;5049457;28;20124;-75
2021/12/28 09:18:56;;;;;;;21.50;8.60;;;7.30;99.90;;;;;;5060855;28;20048;-75
2021/12/28 09:21:21;;;;;;;25.95;8.40;;;7.40;99.90;;;;;;5071629;28;20048;-75
2021/12/28 09:23:47;;;;;;;29.05;9.32;;;7.50;99.90;;;;;;5070629;28;20047;-75
2021/12/28 09:26:13;;;;;;;23.60;7.90;;;7.50;99.90;;;;;;5051911;28;20202;-75
2021/12/28 09:28:39;;;;;;;20.38;8.32;;;7.50;99.90;;;;;;5072885;28;20411;-75
2021/12/28 09:31:04;;;;;;;19.42;7.82;;;7.60;99.90;;;;;;5065879;28;20052;-75
2021/12/28 09:33:30;;;;;;;24.42;7.53;;;7.50;99.90;;;;;;5065888;28;20074;-75
2021/12/28 09:35:57;;;;;;;22.55;8.07;;;7.60;99.90;;;;;;5056098;28;20052;-75
2021/12/28 09:38:23;;;;;;;23.45;6.97;;;7.70;99.90;;;;;;5071490;28;20040;-75
2021/12/28 09:40:50;;;;;;;17.77;6.82;;;7.80;99.90;;;;;;5057711;28;20044;-75
2021/12/28 09:43:16;;;;;;;19.55;7.53;;;7.90;99.90;;;;;;5073723;28;20052;-76
2021/12/28 09:45:42;;;;;;;18.85;7.40;;;8.00;99.90;;;;;;5057303;28;20044;-75
2021/12/28 09:48:09;;;;;;;21.80;7.03;;;8.00;99.90;;;;;;5070239;28;20102;-75
2021/12/28 09:50:39;;;;;;;22.40;7.40;;;8.00;99.90;;;;;;5073553;28;20048;-76
2021/12/28 09:53:06;;;;;;;21.73;7.50;;;8.10;99.90;;;;;;5073817;28;20048;-76
2021/12/28 09:55:32;;;;;;;23.83;6.50;;;8.10;99.90;;;;;;5073073;28;20052;-75
2021/12/28 09:57:59;;;;;;;17.23;6.75;;;8.10;99.90;;;;;;5057162;28;20062;-75
2021/12/28 10:00:26;;;;;;;18.67;6.32;;;8.10;99.90;;;;;;5074246;28;20168;-76
2021/12/28 10:02:52;;;;;;;17.55;6.13;;;8.10;99.90;;;;;;5058654;28;20158;-75
2021/12/28 10:05:23;;;;;;;22.77;6.38;;;8.10;99.90;;;;;;5061308;28;20109;-75
2021/12/28 10:07:56;;;;;;;20.63;6.20;;;8.10;99.90;;;;;;5056191;28;20043;-76
2021/12/28 10:10:31;;;;;;;20.20;6.82;;;8.10;99.90;;;;;;5069848;28;20046;-76
2021/12/28 10:13:00;;;;;;;17.48;6.53;;;8.20;99.90;;;;;;5055261;28;20044;-76
2021/12/28 10:15:40;;;;;;;17.52;6.47;;;8.20;99.90;;;;;;5072781;28;20056;-75
2021/12/28 10:18:11;;;;;;;18.58;5.68;;;8.20;99.90;;;;;;5073407;28;20082;-75
2021/12/28 10:20:52;;;;;;;15.40;5.80;;;8.20;99.90;;;;;;5071470;28;20054;-75
2021/12/28 10:23:25;;;;;;;18.45;6.10;;;8.30;99.90;;;;;;5048773;28;20092;-75
2021/12/28 10:25:57;;;;;;;12.02;5.70;;;8.40;99.90;;;;;;5056364;28;20040;-74
2021/12/28 10:28:28;;;;;;;16.23;6.03;;;8.40;99.90;;;;;;5072222;28;20374;-75
2021/12/28 10:30:59;;;;;;;18.45;6.28;;;8.40;99.90;;;;;;5056636;28;20055;-75
2021/12/28 10:33:27;;;;;;;14.13;5.82;;;8.40;99.90;;;;;;5073034;28;20048;-75
2021/12/28 10:36:02;;;;;;;13.32;5.45;;;8.50;99.90;;;;;;5073234;28;20043;-75
2021/12/28 10:38:32;;;;;;;20.77;6.20;;;8.50;99.90;;;;;;5070075;28;20489;-75
2021/12/28 10:41:00;;;;;;;22.05;6.78;;;8.40;99.90;;;;;;5053916;28;20377;-76
2021/12/28 10:43:28;;;;;;;17.55;5.20;;;8.40;99.90;;;;;;5054302;28;20158;-76
2021/12/28 10:46:05;;;;;;;16.52;5.78;;;8.40;99.90;;;;;;5055259;28;20531;-75
2021/12/28 10:48:38;;;;;;;13.50;5.25;;;8.40;99.90;;;;;;5071580;28;20044;-75
2021/12/28 10:51:13;;;;;;;17.17;5.53;;;8.50;99.90;;;;;;5073845;28;20036;-75
2021/12/28 10:54:13;;;;;;;15.68;5.80;;;8.40;99.90;;;;;;5073453;28;20110;-75
2021/12/28 10:56:52;;;;;;;15.95;5.72;;;8.50;99.90;;;;;;5070836;28;20477;-75
2021/12/28 10:59:26;;;;;;;14.80;5.15;;;8.40;99.90;;;;;;5074054;28;20036;-75
2021/12/28 11:01:54;;;;;;;18.58;6.15;;;8.50;99.90;;;;;;5056555;28;20052;-75
2021/12/28 11:04:20;;;;;;;21.13;5.85;;;8.40;99.90;;;;;;5069585;28;20059;-75
2021/12/28 11:06:51;;;;;;;16.05;5.50;;;8.40;99.90;;;;;;5075502;28;20043;-76
2021/12/28 11:09:18;;;;;;;;;;;8.50;99.90;;;;;;5075226;28;20049;-76
2021/12/28 11:11:45;;;;;;;16.88;5.32;;;8.50;99.90;;;;;;5076532;28;19923;-76
2021/12/28 11:14:15;;;;;;;17.92;6.18;;;8.40;99.90;;;;;;5058988;28;20059;-76
2021/12/28 11:16:48;;;;;;;15.82;6.00;;;8.40;99.90;;;;;;5070408;28;20041;-76
2021/12/28 11:19:14;;;;;;;25.85;7.53;;;8.40;99.90;;;;;;5090141;28;20109;-76
2021/12/28 11:21:50;;;;;;;22.48;7.38;;;8.40;99.90;;;;;;5076385;28;20044;-76
2021/12/28 11:24:17;;;;;;;18.73;6.93;;;8.30;99.90;;;;;;5076822;28;20048;-77
2021/12/28 11:26:45;;;;;;;22.20;7.25;;;8.30;99.90;;;;;;5075456;28;20131;-76
2021/12/28 11:29:32;;;;;;;23.25;6.78;;;8.30;99.90;;;;;;5070591;28;20481;-76
2021/12/28 11:32:02;;;;;;;24.20;7.15;;;8.30;99.90;;;;;;5070074;28;20062;-76
2021/12/28 11:34:39;;;;;;;17.45;6.47;;;8.20;99.90;;;;;;5074413;28;20040;-76
2021/12/28 11:37:12;;;;;;;24.40;7.20;;;8.30;99.90;;;;;;5072666;28;20138;-76
2021/12/28 11:39:41;;;;;;;22.27;7.45;;;8.30;99.90;;;;;;5052653;28;20469;-76
2021/12/28 11:42:08;;;;;;;27.65;7.68;;;8.30;99.90;;;;;;5061106;28;20401;-76
2021/12/28 11:44:35;;;;;;;20.80;6.72;;;8.30;99.90;;;;;;5070667;28;20048;-76
2021/12/28 11:47:02;;;;;;;20.73;6.70;;;8.40;99.90;;;;;;5072826;28;20051;-77
2021/12/28 11:49:28;;;;;;;21.70;7.40;;;8.40;99.90;;;;;;5075463;28;20052;-76
2021/12/28 11:52:00;;;;;;;21.35;7.65;;;8.50;99.90;;;;;;5073779;28;20047;-77
2021/12/28 11:54:28;;;;;;;21.02;8.02;;;8.50;99.90;;;;;;5075958;28;20082;-76
2021/12/28 11:57:00;;;;;;;24.83;7.78;;;8.50;99.90;;;;;;5073280;28;20044;-76
2021/12/28 11:59:28;;;;;;;24.42;7.45;;;8.70;99.90;;;;;;5076723;28;20048;-77
2021/12/28 12:02:01;;;;;;;18.70;7.43;;;8.50;99.90;;;;;;5073236;28;20048;-76
2021/12/28 12:04:30;;;;;;;20.83;7.35;;;8.60;99.90;;;;;;5068030;28;20050;-76
2021/12/28 12:07:01;;;;;;;19.15;7.13;;;8.60;99.90;;;;;;5075873;28;20078;-76
2021/12/28 12:09:28;;;;;;;22.98;7.05;;;8.70;99.90;;;;;;5074394;28;20044;-76
2021/12/28 12:12:28;;;;;;;28.55;7.88;;;8.70;99.90;;;;;;5073692;28;20216;-75
2021/12/28 12:14:58;;;;;;;18.58;6.78;;;8.60;99.90;;;;;;5050522;28;20080;-75
2021/12/28 12:17:39;;;;;;;17.77;6.80;;;8.60;99.90;;;;;;5052871;28;20521;-76
2021/12/28 12:20:20;;;;;;;24.33;8.13;;;8.60;99.90;;;;;;5058867;28;20076;-76
2021/12/28 12:22:51;;;;;;;22.48;8.07;;;8.60;99.90;;;;;;5059974;28;20403;-77
2021/12/28 12:25:23;;;;;;;25.63;7.68;;;8.70;99.90;;;;;;5066677;28;20115;-76
2021/12/28 12:27:54;;;;;;;23.48;7.95;;;8.70;99.90;;;;;;5055785;28;20052;-76
2021/12/28 12:30:27;;;;;;;23.10;8.00;;;8.60;99.90;;;;;;5063239;28;20053;-75
2021/12/28 12:33:00;;;;;;;25.35;8.23;;;8.70;99.90;;;;;;5054787;28;20045;-76
2021/12/28 12:35:58;;;;;;;19.75;8.15;;;8.70;99.90;;;;;;5062725;28;20107;-76
2021/12/28 12:38:24;;;;;;;21.30;7.90;;;8.70;99.90;;;;;;5061939;28;20116;-76
2021/12/28 12:41:01;;;;;;;22.40;8.30;;;8.70;99.90;;;;;;5070892;28;20056;-76
2021/12/28 12:43:39;;;;;;;21.05;7.50;;;8.70;99.90;;;;;;5049911;28;20044;-77